createdAt,value
2018-12-04T00:02:19.462Z,20.70
2018-12-04T00:04:46.983Z,20.70
2018-12-04T00:07:14.493Z,20.60
2018-12-04T00:09:42.015Z,20.60
2018-12-04T00:12:09.515Z,20.60
2018-12-04T00:14:37.013Z,20.60
2018-12-04T00:19:44.226Z,20.60
2018-12-04T00:22:11.746Z,20.60
2018-12-04T00:24:39.254Z,20.60
2018-12-04T00:27:07.325Z,20.60
2018-12-04T00:29:35.389Z,20.60
2018-12-04T00:32:02.885Z,20.60
2018-12-04T00:34:30.406Z,20.60
2018-12-04T00:36:57.934Z,20.60
2018-12-04T00:39:25.444Z,20.50
2018-12-04T00:41:52.941Z,20.60
2018-12-04T00:44:20.458Z,20.50
2018-12-04T00:46:47.962Z,20.50
2018-12-04T00:49:15.470Z,20.50
2018-12-04T00:51:42.969Z,20.50
2018-12-04T00:54:10.491Z,20.50
2018-12-04T00:56:37.997Z,20.50
2018-12-04T00:59:05.494Z,20.50
2018-12-04T01:01:33.566Z,20.50
2018-12-04T01:04:01.269Z,20.40
2018-12-04T01:06:28.794Z,20.50
2018-12-04T01:08:56.409Z,20.40
2018-12-04T01:11:24.010Z,20.40
2018-12-04T01:13:52.142Z,20.40
2018-12-04T01:16:19.665Z,20.40
2018-12-04T01:18:47.162Z,20.40
2018-12-04T01:21:14.673Z,20.40
2018-12-04T01:23:42.657Z,20.40
2018-12-04T01:26:10.165Z,20.40
2018-12-04T01:28:37.674Z,20.40
2018-12-04T01:31:05.180Z,20.40
2018-12-04T01:33:32.681Z,20.40
2018-12-04T01:36:00.198Z,20.30
2018-12-04T01:38:27.709Z,20.40
2018-12-04T01:40:55.209Z,20.40
2018-12-04T01:43:23.110Z,20.30
2018-12-04T01:45:50.877Z,20.30
2018-12-04T01:48:18.726Z,20.30
2018-12-04T01:50:46.210Z,20.40
2018-12-04T01:53:14.489Z,20.40
2018-12-04T01:55:41.993Z,20.30
2018-12-04T01:58:09.508Z,20.30
2018-12-04T02:00:37.024Z,20.30
2018-12-04T02:03:04.554Z,20.30
2018-12-04T02:05:32.074Z,20.30
2018-12-04T02:07:59.838Z,20.30
2018-12-04T02:10:27.353Z,20.30
2018-12-04T02:12:54.854Z,20.30
2018-12-04T02:15:22.550Z,20.30
2018-12-04T02:17:50.040Z,20.30
2018-12-04T02:20:18.352Z,20.30
2018-12-04T02:22:46.133Z,20.30
2018-12-04T02:25:14.005Z,20.30
2018-12-04T02:27:41.497Z,20.30
2018-12-04T02:30:09.781Z,20.20
2018-12-04T02:32:37.347Z,20.20
2018-12-04T02:35:05.525Z,20.20
2018-12-04T02:37:33.019Z,20.20
2018-12-04T02:40:00.540Z,20.20
2018-12-04T02:42:28.025Z,20.20
2018-12-04T02:44:55.520Z,20.20
2018-12-04T02:47:23.029Z,20.20
2018-12-04T02:49:50.918Z,20.20
2018-12-04T02:52:18.498Z,20.10
2018-12-04T02:54:46.024Z,20.20
2018-12-04T02:57:13.521Z,20.10
2018-12-04T02:59:41.018Z,20.10
2018-12-04T03:02:08.535Z,20.10
2018-12-04T03:04:36.016Z,20.10
2018-12-04T03:07:03.533Z,20.10
2018-12-04T03:09:31.035Z,20.10
2018-12-04T03:11:58.552Z,20.10
2018-12-04T03:14:26.144Z,20.10
2018-12-04T03:16:53.654Z,20.10
2018-12-04T03:19:21.520Z,20.10
2018-12-04T03:21:49.393Z,20.10
2018-12-04T03:24:16.889Z,20.10
2018-12-04T03:26:44.391Z,20.10
2018-12-04T03:29:11.903Z,20.10
2018-12-04T03:31:39.401Z,20.10
2018-12-04T03:34:07.008Z,20.10
2018-12-04T03:36:35.225Z,20.00
2018-12-04T03:39:02.751Z,20.00
2018-12-04T03:41:30.262Z,20.00
2018-12-04T03:43:57.785Z,20.10
2018-12-04T03:46:25.296Z,20.00
2018-12-04T03:48:53.158Z,20.00
2018-12-04T03:51:20.676Z,20.00
2018-12-04T03:53:48.257Z,20.00
2018-12-04T03:56:15.773Z,20.00
2018-12-04T03:58:43.267Z,20.00
2018-12-04T04:01:10.777Z,20.00
2018-12-04T04:03:38.273Z,20.00
2018-12-04T04:06:05.784Z,20.00
2018-12-04T04:08:33.299Z,20.00
2018-12-04T04:11:01.583Z,20.00
2018-12-04T04:13:29.081Z,20.00
2018-12-04T04:15:56.565Z,20.00
2018-12-04T04:18:24.083Z,20.00
2018-12-04T04:20:51.594Z,20.00
2018-12-04T04:23:19.095Z,20.00
2018-12-04T04:25:46.600Z,20.00
2018-12-04T04:28:14.091Z,20.00
2018-12-04T04:30:41.599Z,20.00
2018-12-04T04:33:09.854Z,19.90
2018-12-04T04:35:37.393Z,20.00
2018-12-04T04:38:04.925Z,19.90
2018-12-04T04:40:32.402Z,19.90
2018-12-04T04:42:59.894Z,19.90
2018-12-04T04:45:27.423Z,19.90
2018-12-04T04:47:54.929Z,19.90
2018-12-04T04:50:22.447Z,19.90
2018-12-04T04:52:50.041Z,19.90
2018-12-04T04:55:17.553Z,19.90
2018-12-04T04:57:45.743Z,19.90
2018-12-04T05:00:13.238Z,19.90
2018-12-04T05:02:41.241Z,19.90
2018-12-04T05:05:08.738Z,19.90
2018-12-04T05:07:36.222Z,19.90
2018-12-04T05:10:05.072Z,19.90
2018-12-04T05:12:32.578Z,19.90
2018-12-04T05:15:00.066Z,19.90
2018-12-04T05:17:28.329Z,19.90
2018-12-04T05:19:55.934Z,19.90
2018-12-04T05:22:23.932Z,19.90
2018-12-04T05:24:51.429Z,19.80
2018-12-04T05:27:18.917Z,19.80
2018-12-04T05:29:46.784Z,19.80
2018-12-04T05:32:14.270Z,19.80
2018-12-04T05:34:41.771Z,19.80
2018-12-04T05:37:09.541Z,19.80
2018-12-04T05:39:37.041Z,19.80
2018-12-04T05:42:04.543Z,19.80
2018-12-04T05:44:32.116Z,19.80
2018-12-04T05:46:59.611Z,19.80
2018-12-04T05:49:27.085Z,19.80
2018-12-04T05:51:54.597Z,19.80
2018-12-04T05:54:22.094Z,19.80
2018-12-04T05:56:49.591Z,19.80
2018-12-04T05:59:17.082Z,19.80
2018-12-04T06:01:45.142Z,19.80
2018-12-04T06:04:12.641Z,19.70
2018-12-04T06:06:40.142Z,19.80
2018-12-04T06:09:07.924Z,19.80
2018-12-04T06:11:35.774Z,19.80
2018-12-04T06:14:03.758Z,19.70
2018-12-04T06:16:31.341Z,19.70
2018-12-04T06:18:58.856Z,19.70
2018-12-04T06:21:26.442Z,19.80
2018-12-04T06:23:54.102Z,19.70
2018-12-04T06:26:21.594Z,19.70
2018-12-04T06:28:49.778Z,19.70
2018-12-04T06:31:17.290Z,19.70
2018-12-04T06:33:44.775Z,19.70
2018-12-04T06:36:12.261Z,19.70
2018-12-04T06:38:40.173Z,19.70
2018-12-04T06:41:07.657Z,19.70
2018-12-04T06:43:35.166Z,19.70
2018-12-04T06:46:02.658Z,19.70
2018-12-04T06:48:30.243Z,19.70
2018-12-04T06:50:57.721Z,19.70
2018-12-04T06:53:25.230Z,19.70
2018-12-04T06:55:52.724Z,19.70
2018-12-04T06:58:20.204Z,19.70
2018-12-04T07:00:48.526Z,19.70
2018-12-04T07:03:16.422Z,19.70
2018-12-04T07:05:43.945Z,19.70
2018-12-04T07:08:11.510Z,19.60
2018-12-04T07:10:39.774Z,19.70
2018-12-04T07:13:07.270Z,19.70
2018-12-04T07:15:34.792Z,19.70
2018-12-04T07:18:02.277Z,19.60
2018-12-04T07:20:29.769Z,19.60
2018-12-04T07:22:57.269Z,19.60
2018-12-04T07:25:25.543Z,19.70
2018-12-04T07:27:53.049Z,19.60
2018-12-04T07:30:20.533Z,19.70
2018-12-04T07:32:48.017Z,19.60
2018-12-04T07:35:15.591Z,19.70
2018-12-04T07:37:43.077Z,19.60
2018-12-04T07:40:10.597Z,19.60
2018-12-04T07:42:38.155Z,19.60
2018-12-04T07:45:05.981Z,19.60
2018-12-04T07:47:33.490Z,19.60
2018-12-04T07:50:01.005Z,19.70
2018-12-04T07:52:28.497Z,19.60
2018-12-04T07:54:56.482Z,19.70
2018-12-04T07:57:23.989Z,19.80
2018-12-04T07:59:51.502Z,19.90
2018-12-04T08:02:19.022Z,20.00
2018-12-04T08:04:46.539Z,20.10
2018-12-04T08:07:14.069Z,20.20
2018-12-04T08:09:41.595Z,20.30
2018-12-04T08:12:09.081Z,20.40
2018-12-04T08:14:36.598Z,20.50
2018-12-04T08:17:04.115Z,20.50
2018-12-04T08:19:31.605Z,20.60
2018-12-04T08:21:59.237Z,20.60
2018-12-04T08:24:26.741Z,20.60
2018-12-04T08:26:54.250Z,20.60
2018-12-04T08:29:22.041Z,20.60
2018-12-04T08:31:49.818Z,20.50
2018-12-04T08:34:17.338Z,20.60
2018-12-04T08:36:44.858Z,20.60
2018-12-04T08:39:13.314Z,20.70
2018-12-04T08:41:40.912Z,20.80
2018-12-04T08:44:08.406Z,20.80
2018-12-04T08:46:35.998Z,20.80
2018-12-04T08:49:03.517Z,20.70
2018-12-04T08:51:31.042Z,20.60
2018-12-04T08:53:58.558Z,20.60
2018-12-04T08:56:26.075Z,20.60
2018-12-04T08:58:53.585Z,20.50
2018-12-04T09:01:21.079Z,20.50
2018-12-04T09:03:48.601Z,20.40
2018-12-04T09:06:16.097Z,20.50
2018-12-04T09:08:43.622Z,20.50
2018-12-04T09:11:11.783Z,20.50
2018-12-04T09:13:39.283Z,20.50
2018-12-04T09:16:06.813Z,20.60
2018-12-04T09:18:34.314Z,20.50
2018-12-04T09:21:02.178Z,20.60
2018-12-04T09:23:30.001Z,20.70
2018-12-04T09:25:57.677Z,20.80
2018-12-04T09:28:25.341Z,20.90
2018-12-04T09:30:53.772Z,20.90
2018-12-04T09:33:21.321Z,21.00
2018-12-04T09:35:48.828Z,21.00
2018-12-04T09:38:16.496Z,21.00
2018-12-04T09:40:44.510Z,20.90
2018-12-04T09:43:12.005Z,20.90
2018-12-04T09:45:39.534Z,20.90
2018-12-04T09:48:07.035Z,20.90
2018-12-04T09:50:34.571Z,20.90
2018-12-04T09:53:02.074Z,20.90
2018-12-04T09:55:29.585Z,20.90
2018-12-04T09:57:57.098Z,20.90
2018-12-04T10:00:24.694Z,20.90
2018-12-04T10:02:52.195Z,20.90
2018-12-04T10:05:19.709Z,20.90
2018-12-04T10:07:47.222Z,21.00
2018-12-04T10:10:14.759Z,21.00
2018-12-04T10:12:42.280Z,21.00
2018-12-04T10:15:09.909Z,21.00
2018-12-04T10:17:37.423Z,21.00
2018-12-04T10:20:07.866Z,21.00
2018-12-04T10:22:35.413Z,21.00
2018-12-04T10:25:02.914Z,21.00
2018-12-04T10:27:30.435Z,21.00
2018-12-04T10:29:57.982Z,21.00
2018-12-04T10:32:25.498Z,21.10
2018-12-04T10:34:53.018Z,21.10
2018-12-04T10:37:20.533Z,21.20
2018-12-04T10:39:48.047Z,21.20
2018-12-04T10:42:15.549Z,21.20
2018-12-04T10:44:43.717Z,21.20
2018-12-04T10:47:11.690Z,21.30
2018-12-04T10:49:39.896Z,21.30
2018-12-04T10:52:08.425Z,21.30
2018-12-04T10:54:35.942Z,21.30
2018-12-04T10:57:03.442Z,21.40
2018-12-04T10:59:30.964Z,21.40
2018-12-04T11:02:04.270Z,21.40
2018-12-04T11:04:31.765Z,21.50
2018-12-04T11:06:59.354Z,21.50
2018-12-04T11:09:27.118Z,21.50
2018-12-04T11:11:55.267Z,21.50
2018-12-04T11:14:22.766Z,21.60
2018-12-04T11:16:50.285Z,21.60
2018-12-04T11:19:18.565Z,21.60
2018-12-04T11:21:46.096Z,21.70
2018-12-04T11:24:13.585Z,21.70
2018-12-04T11:26:41.105Z,21.70
2018-12-04T11:29:08.616Z,21.70
2018-12-04T11:31:36.127Z,21.70
2018-12-04T11:34:03.622Z,21.80
2018-12-04T11:36:31.148Z,21.80
2018-12-04T11:38:58.634Z,21.70
2018-12-04T11:41:26.159Z,21.70
2018-12-04T11:43:53.674Z,21.60
2018-12-04T11:46:21.198Z,21.60
2018-12-04T11:48:48.707Z,21.60
2018-12-04T11:51:16.221Z,21.60
2018-12-04T11:53:43.713Z,21.60
2018-12-04T11:56:11.934Z,21.60
2018-12-04T11:58:39.497Z,21.50
2018-12-04T12:01:07.017Z,21.50
2018-12-04T12:03:34.511Z,21.60
2018-12-04T12:06:02.040Z,21.60
2018-12-04T12:08:30.213Z,21.50
2018-12-04T12:10:57.720Z,21.50
2018-12-04T12:13:25.234Z,21.50
2018-12-04T12:15:52.744Z,21.40
2018-12-04T12:18:20.253Z,21.40
2018-12-04T12:20:47.758Z,21.40
2018-12-04T12:23:15.262Z,21.30
2018-12-04T12:25:42.766Z,21.30
2018-12-04T12:28:10.289Z,21.30
2018-12-04T12:30:37.867Z,21.20
2018-12-04T12:33:05.393Z,21.20
2018-12-04T12:35:32.879Z,21.20
2018-12-04T12:38:00.386Z,21.20
2018-12-04T12:40:27.898Z,21.20
2018-12-04T12:42:55.430Z,21.20
2018-12-04T12:45:23.016Z,21.10
2018-12-04T12:47:50.507Z,21.10
2018-12-04T12:50:18.023Z,21.10
2018-12-04T12:52:45.538Z,21.10
2018-12-04T12:55:13.145Z,21.00
2018-12-04T12:57:40.644Z,21.00
2018-12-04T13:00:09.090Z,21.00
2018-12-04T13:02:36.595Z,21.10
2018-12-04T13:05:04.343Z,21.10
2018-12-04T13:07:31.948Z,21.10
2018-12-04T13:10:00.152Z,21.10
2018-12-04T13:12:27.634Z,21.00
2018-12-04T13:14:55.173Z,21.10
2018-12-04T13:17:22.695Z,21.00
2018-12-04T13:19:50.214Z,21.00
2018-12-04T13:22:17.711Z,21.00
2018-12-04T13:24:45.274Z,21.00
2018-12-04T13:27:12.820Z,21.00
2018-12-04T13:29:40.327Z,21.00
2018-12-04T13:32:07.837Z,21.00
2018-12-04T13:34:35.451Z,21.00
2018-12-04T13:37:02.965Z,20.90
2018-12-04T13:39:30.462Z,21.00
2018-12-04T13:41:57.969Z,20.90
2018-12-04T13:44:25.478Z,20.90
2018-12-04T13:46:53.001Z,20.90
2018-12-04T13:49:20.887Z,20.90
2018-12-04T13:51:48.427Z,20.90
2018-12-04T13:54:16.786Z,20.80
2018-12-04T13:56:44.305Z,20.80
2018-12-04T13:59:11.806Z,20.80
2018-12-04T14:01:39.330Z,20.90
2018-12-04T14:04:06.958Z,20.80
2018-12-04T14:06:34.473Z,20.80
2018-12-04T14:09:03.585Z,20.80
2018-12-04T14:11:31.131Z,20.80
2018-12-04T14:13:58.646Z,20.80
2018-12-04T14:16:26.291Z,20.80
2018-12-04T14:18:53.983Z,20.70
2018-12-04T14:21:21.538Z,20.80
2018-12-04T14:23:49.149Z,20.70
2018-12-04T14:26:16.659Z,20.70
2018-12-04T14:28:44.218Z,20.70
2018-12-04T14:31:11.804Z,20.80
2018-12-04T14:33:39.438Z,20.80
2018-12-04T14:36:07.042Z,20.90
2018-12-04T14:38:34.585Z,21.00
2018-12-04T14:41:02.162Z,21.10
2018-12-04T14:43:29.673Z,21.20
2018-12-04T14:45:57.752Z,21.10
2018-12-04T14:48:25.366Z,21.10
2018-12-04T14:50:52.975Z,21.00
2018-12-04T14:53:20.576Z,21.00
2018-12-04T14:55:48.198Z,21.00
2018-12-04T14:58:15.727Z,20.90
2018-12-04T15:00:43.339Z,20.90
2018-12-04T15:03:11.223Z,20.90
2018-12-04T15:05:38.753Z,20.90
2018-12-04T15:08:06.528Z,20.90
2018-12-04T15:10:34.246Z,20.90
2018-12-04T15:13:03.241Z,20.80
2018-12-04T15:15:31.486Z,20.80
2018-12-04T15:17:58.978Z,20.80
2018-12-04T15:20:26.526Z,20.80
2018-12-04T15:22:54.115Z,20.80
2018-12-04T15:25:22.811Z,20.70
2018-12-04T15:27:50.387Z,20.70
2018-12-04T15:30:17.905Z,20.70
2018-12-04T15:32:45.495Z,20.70
2018-12-04T15:35:13.134Z,20.70
2018-12-04T15:37:41.351Z,20.70
2018-12-04T15:40:08.925Z,20.70
2018-12-04T15:42:37.109Z,20.70
2018-12-04T15:45:05.151Z,20.70
2018-12-04T15:47:32.761Z,20.80
2018-12-04T15:50:00.261Z,20.80
2018-12-04T15:52:27.810Z,21.00
2018-12-04T15:54:55.305Z,21.00
2018-12-04T15:57:22.827Z,21.00
2018-12-04T15:59:50.330Z,21.00
2018-12-04T16:02:17.835Z,21.00
2018-12-04T16:04:45.368Z,20.90
2018-12-04T16:07:13.150Z,20.90
2018-12-04T16:09:40.925Z,20.90
2018-12-04T16:12:08.464Z,20.90
2018-12-04T16:14:35.983Z,20.80
2018-12-04T16:17:03.749Z,20.80
2018-12-04T16:19:31.244Z,20.80
2018-12-04T16:21:58.759Z,20.80
2018-12-04T16:24:26.285Z,20.80
2018-12-04T16:26:53.810Z,20.80
2018-12-04T16:29:21.590Z,20.80
2018-12-04T16:31:49.184Z,20.70
2018-12-04T16:34:17.133Z,20.70
2018-12-04T16:36:44.642Z,20.70
2018-12-04T16:39:12.138Z,20.70
2018-12-04T16:41:39.641Z,20.70
2018-12-04T16:44:07.174Z,20.70
2018-12-04T16:46:34.669Z,20.60
2018-12-04T16:49:02.171Z,20.70
2018-12-04T16:51:29.695Z,20.60
2018-12-04T16:53:57.196Z,20.70
2018-12-04T16:56:24.770Z,20.60
2018-12-04T16:58:52.276Z,20.70
2018-12-04T17:01:20.308Z,20.70
2018-12-04T17:03:47.794Z,20.70
2018-12-04T17:06:15.313Z,20.70
2018-12-04T17:08:42.823Z,20.80
2018-12-04T17:11:10.326Z,20.90
2018-12-04T17:13:37.834Z,21.10
2018-12-04T17:16:05.718Z,21.00
2018-12-04T17:18:37.704Z,21.10
2018-12-04T17:21:03.434Z,21.00
2018-12-04T17:23:30.950Z,21.00
2018-12-04T17:25:59.269Z,21.00
2018-12-04T17:28:26.775Z,20.90
2018-12-04T17:30:54.273Z,20.90
2018-12-04T17:33:21.784Z,20.90
2018-12-04T17:35:49.285Z,20.80
2018-12-04T17:38:16.786Z,20.80
2018-12-04T17:40:44.463Z,20.80
2018-12-04T17:43:11.976Z,20.80
2018-12-04T17:45:39.470Z,20.80
2018-12-04T17:48:06.969Z,20.80
2018-12-04T17:50:34.480Z,20.80
2018-12-04T17:53:01.986Z,20.80
2018-12-04T17:55:29.499Z,20.80
2018-12-04T17:57:57.010Z,20.70
2018-12-04T18:00:24.811Z,20.70
2018-12-04T18:02:52.308Z,20.70
2018-12-04T18:05:20.382Z,20.70
2018-12-04T18:07:47.878Z,20.70
2018-12-04T18:10:15.385Z,20.70
2018-12-04T18:12:43.148Z,20.70
2018-12-04T18:15:10.800Z,20.70
2018-12-04T18:17:38.291Z,20.70
2018-12-04T18:20:05.805Z,20.70
2018-12-04T18:22:33.342Z,20.70
2018-12-04T18:25:00.868Z,20.80
2018-12-04T18:27:28.375Z,20.70
2018-12-04T18:29:55.881Z,20.70
2018-12-04T18:32:23.390Z,20.70
2018-12-04T18:34:50.895Z,20.70
2018-12-04T18:37:18.461Z,20.70
2018-12-04T18:39:46.186Z,20.70
2018-12-04T18:42:14.319Z,20.70
2018-12-04T18:44:41.871Z,20.70
2018-12-04T18:47:09.395Z,20.70
2018-12-04T18:49:36.921Z,20.70
2018-12-04T18:52:04.470Z,20.60
2018-12-04T18:54:31.991Z,20.70
2018-12-04T18:56:59.538Z,20.80
2018-12-04T18:59:27.090Z,20.80
2018-12-04T19:01:54.750Z,20.90
2018-12-04T19:04:22.721Z,20.90
2018-12-04T19:06:50.269Z,20.90
2018-12-04T19:09:17.779Z,20.90
2018-12-04T19:11:45.374Z,20.90
2018-12-04T19:14:12.924Z,20.90
2018-12-04T19:16:41.097Z,20.90
2018-12-04T19:19:08.608Z,20.80
2018-12-04T19:21:36.127Z,20.80
2018-12-04T19:24:03.734Z,20.80
2018-12-04T19:26:31.286Z,20.80
2018-12-04T19:28:58.837Z,20.80
2018-12-04T19:31:26.450Z,20.80
2018-12-04T19:33:53.960Z,20.80
2018-12-04T19:36:21.464Z,20.70
2018-12-04T19:38:48.981Z,20.70
2018-12-04T19:41:16.494Z,20.50
2018-12-04T19:43:44.010Z,20.70
2018-12-04T19:46:11.510Z,20.70
2018-12-04T19:48:39.022Z,20.70
2018-12-04T19:51:06.541Z,20.70
2018-12-04T19:53:34.068Z,20.70
2018-12-04T19:56:01.584Z,20.60
2018-12-04T19:58:29.106Z,20.70
2018-12-04T20:00:56.655Z,20.60
2018-12-04T20:03:24.838Z,20.60
2018-12-04T20:05:52.728Z,20.60
2018-12-04T20:08:20.294Z,20.60
2018-12-04T20:10:47.845Z,20.60
2018-12-04T20:13:15.636Z,20.60
2018-12-04T20:15:43.202Z,20.60
2018-12-04T20:18:10.718Z,20.60
2018-12-04T20:20:38.235Z,20.60
2018-12-04T20:23:05.754Z,20.60
2018-12-04T20:25:33.260Z,20.60
2018-12-04T20:28:00.795Z,20.60
2018-12-04T20:30:28.303Z,20.60
2018-12-04T20:32:59.836Z,20.60
2018-12-04T20:35:25.413Z,20.70
2018-12-04T20:37:52.926Z,20.80
2018-12-04T20:40:20.447Z,20.90
2018-12-04T20:42:47.960Z,20.90
2018-12-04T20:45:15.478Z,20.90
2018-12-04T20:47:43.010Z,20.90
2018-12-04T20:50:10.538Z,20.90
2018-12-04T20:52:38.066Z,20.90
2018-12-04T20:55:08.997Z,20.90
2018-12-04T20:57:35.121Z,20.90
2018-12-04T21:00:05.428Z,20.80
2018-12-04T21:02:33.190Z,20.80
2018-12-04T21:05:00.705Z,20.80
2018-12-04T21:07:28.226Z,20.80
2018-12-04T21:09:56.480Z,20.70
2018-12-04T21:12:24.055Z,20.70
2018-12-04T21:14:52.339Z,20.70
2018-12-04T21:17:19.923Z,20.70
2018-12-04T21:19:47.442Z,20.70
2018-12-04T21:22:14.950Z,20.60
2018-12-04T21:24:42.467Z,20.60
2018-12-04T21:27:15.631Z,20.70
2018-12-04T21:29:48.921Z,20.70
2018-12-04T21:35:23.020Z,20.70
2018-12-04T21:37:56.266Z,20.70
2018-12-04T21:40:29.609Z,20.70
2018-12-04T21:43:02.842Z,20.60
2018-12-04T21:48:35.200Z,20.60
2018-12-04T21:51:03.009Z,20.60
2018-12-04T21:53:30.678Z,20.60
2018-12-04T21:55:58.456Z,20.60
2018-12-04T21:58:26.140Z,20.60
2018-12-04T22:00:53.643Z,20.60
2018-12-04T22:03:21.178Z,20.60
2018-12-04T22:05:48.700Z,20.60
2018-12-04T22:08:16.372Z,20.60
2018-12-04T22:10:43.875Z,20.50
2018-12-04T22:13:11.657Z,20.60
2018-12-04T22:15:39.153Z,20.60
2018-12-04T22:18:06.677Z,20.50
2018-12-04T22:20:34.173Z,20.60
2018-12-04T22:23:02.252Z,20.50
2018-12-04T22:25:29.793Z,20.50
2018-12-04T22:27:57.964Z,20.60
2018-12-04T22:30:25.473Z,20.60
2018-12-04T22:32:53.760Z,20.50
2018-12-04T22:35:21.548Z,20.50
2018-12-04T22:37:49.050Z,20.50
2018-12-04T22:40:16.579Z,20.50
2018-12-04T22:42:44.171Z,20.50
2018-12-04T22:45:30.626Z,20.50
2018-12-04T22:47:58.154Z,20.50
2018-12-04T22:50:25.675Z,20.60
2018-12-04T22:52:53.206Z,20.60
2018-12-04T22:55:20.709Z,20.60
2018-12-04T22:57:48.226Z,20.60
2018-12-04T23:00:24.521Z,20.60
2018-12-04T23:02:52.045Z,20.70
2018-12-04T23:05:19.541Z,20.80
2018-12-04T23:07:47.090Z,20.90
2018-12-04T23:10:15.206Z,20.90
2018-12-04T23:12:43.002Z,20.90
2018-12-04T23:15:10.532Z,20.90
2018-12-04T23:17:38.037Z,20.90
2018-12-04T23:20:05.558Z,20.90
2018-12-04T23:22:33.471Z,20.80
2018-12-04T23:25:00.969Z,20.80
2018-12-04T23:27:28.646Z,20.80
2018-12-04T23:29:56.158Z,20.80
2018-12-04T23:32:23.700Z,20.80
2018-12-04T23:34:51.209Z,20.80
2018-12-04T23:37:18.810Z,20.80
2018-12-04T23:39:46.311Z,20.80
2018-12-04T23:42:13.889Z,20.70
2018-12-04T23:44:41.474Z,20.70
2018-12-04T23:47:08.970Z,20.70
2018-12-04T23:49:36.494Z,20.70
2018-12-04T23:52:04.008Z,20.70
2018-12-04T23:54:31.501Z,20.70
2018-12-04T23:56:59.007Z,20.70
2018-12-04T23:59:26.689Z,20.70
